sensor_id;sensor_type;location;lat;lon;timestamp;P1;durP1;ratioP1;P2;durP2;ratioP2
36185;SDS011;22228;53.222;7.446;2023-02-22T00:02:13;82.10;;;39.30;;
36185;SDS011;22228;53.222;7.446;2023-02-22T00:04:45;74.57;;;36.00;;
36185;SDS011;22228;53.222;7.446;2023-02-22T00:07:06;84.83;;;39.27;;
36185;SDS011;22228;53.222;7.446;2023-02-22T00:09:27;83.27;;;36.57;;
36185;SDS011;22228;53.222;7.446;2023-02-22T00:11:47;82.03;;;37.23;;
36185;SDS011;22228;53.222;7.446;2023-02-22T00:14:09;88.37;;;38.13;;
36185;SDS011;22228;53.222;7.446;2023-02-22T00:16:30;81.00;;;37.33;;
36185;SDS011;22228;53.222;7.446;2023-02-22T00:18:50;75.97;;;35.53;;
36185;SDS011;22228;53.222;7.446;2023-02-22T00:21:13;78.17;;;36.60;;
36185;SDS011;22228;53.222;7.446;2023-02-22T00:23:35;84.43;;;38.13;;
36185;SDS011;22228;53.222;7.446;2023-02-22T00:25:58;74.60;;;34.80;;
36185;SDS011;22228;53.222;7.446;2023-02-22T00:28:19;76.37;;;34.70;;
36185;SDS011;22228;53.222;7.446;2023-02-22T00:30:42;82.80;;;36.10;;
36185;SDS011;22228;53.222;7.446;2023-02-22T00:33:02;84.40;;;37.17;;
36185;SDS011;22228;53.222;7.446;2023-02-22T00:35:26;81.93;;;37.30;;
36185;SDS011;22228;53.222;7.446;2023-02-22T00:37:48;80.10;;;34.93;;
36185;SDS011;22228;53.222;7.446;2023-02-22T00:40:10;74.87;;;36.00;;
36185;SDS011;22228;53.222;7.446;2023-02-22T00:42:34;75.10;;;34.87;;
36185;SDS011;22228;53.222;7.446;2023-02-22T00:44:55;78.20;;;33.60;;
36185;SDS011;22228;53.222;7.446;2023-02-22T00:47:15;78.67;;;35.53;;
36185;SDS011;22228;53.222;7.446;2023-02-22T00:49:36;77.63;;;35.10;;
36185;SDS011;22228;53.222;7.446;2023-02-22T00:51:56;74.93;;;33.50;;
36185;SDS011;22228;53.222;7.446;2023-02-22T00:54:18;66.97;;;32.07;;
36185;SDS011;22228;53.222;7.446;2023-02-22T00:56:39;71.27;;;33.33;;
36185;SDS011;22228;53.222;7.446;2023-02-22T00:58:59;67.93;;;32.33;;
36185;SDS011;22228;53.222;7.446;2023-02-22T01:01:21;70.20;;;32.27;;
36185;SDS011;22228;53.222;7.446;2023-02-22T01:03:42;66.90;;;31.77;;
36185;SDS011;22228;53.222;7.446;2023-02-22T01:06:02;64.57;;;32.17;;
36185;SDS011;22228;53.222;7.446;2023-02-22T01:08:23;61.97;;;30.07;;
36185;SDS011;22228;53.222;7.446;2023-02-22T01:10:45;62.23;;;30.20;;
36185;SDS011;22228;53.222;7.446;2023-02-22T01:13:06;60.37;;;29.43;;
36185;SDS011;22228;53.222;7.446;2023-02-22T04:01:37;59.27;;;29.77;;
36185;SDS011;22228;53.222;7.446;2023-02-22T04:03:58;59.40;;;29.63;;
36185;SDS011;22228;53.222;7.446;2023-02-22T04:06:19;60.73;;;30.40;;
36185;SDS011;22228;53.222;7.446;2023-02-22T04:08:39;71.20;;;32.63;;
36185;SDS011;22228;53.222;7.446;2023-02-22T04:11:02;70.13;;;31.33;;
36185;SDS011;22228;53.222;7.446;2023-02-22T04:13:23;66.43;;;32.53;;
36185;SDS011;22228;53.222;7.446;2023-02-22T04:15:45;65.83;;;31.80;;
36185;SDS011;22228;53.222;7.446;2023-02-22T04:18:07;65.23;;;30.07;;
36185;SDS011;22228;53.222;7.446;2023-02-22T04:20:28;65.47;;;30.60;;
36185;SDS011;22228;53.222;7.446;2023-02-22T04:22:53;59.33;;;28.27;;
36185;SDS011;22228;53.222;7.446;2023-02-22T04:25:14;59.13;;;29.30;;
36185;SDS011;22228;53.222;7.446;2023-02-22T04:27:35;56.83;;;28.40;;
36185;SDS011;22228;53.222;7.446;2023-02-22T04:29:56;56.00;;;29.33;;
36185;SDS011;22228;53.222;7.446;2023-02-22T04:32:16;60.37;;;29.07;;
36185;SDS011;22228;53.222;7.446;2023-02-22T04:34:38;57.40;;;29.77;;
36185;SDS011;22228;53.222;7.446;2023-02-22T04:36:59;51.80;;;27.67;;
36185;SDS011;22228;53.222;7.446;2023-02-22T04:39:19;55.83;;;28.90;;
36185;SDS011;22228;53.222;7.446;2023-02-22T04:41:40;58.77;;;29.83;;
36185;SDS011;22228;53.222;7.446;2023-02-22T04:44:00;57.87;;;29.00;;
36185;SDS011;22228;53.222;7.446;2023-02-22T04:46:22;58.07;;;29.27;;
36185;SDS011;22228;53.222;7.446;2023-02-22T04:48:44;52.07;;;26.60;;
36185;SDS011;22228;53.222;7.446;2023-02-22T04:51:09;59.13;;;29.87;;
36185;SDS011;22228;53.222;7.446;2023-02-22T04:53:34;52.60;;;27.43;;
36185;SDS011;22228;53.222;7.446;2023-02-22T04:55:54;55.47;;;28.97;;
36185;SDS011;22228;53.222;7.446;2023-02-22T04:58:15;58.10;;;28.03;;
36185;SDS011;22228;53.222;7.446;2023-02-22T05:00:35;53.57;;;29.13;;
36185;SDS011;22228;53.222;7.446;2023-02-22T05:02:58;48.93;;;27.00;;
36185;SDS011;22228;53.222;7.446;2023-02-22T05:05:19;52.83;;;27.63;;
36185;SDS011;22228;53.222;7.446;2023-02-22T05:07:42;48.67;;;26.00;;
36185;SDS011;22228;53.222;7.446;2023-02-22T05:10:02;51.83;;;26.60;;
36185;SDS011;22228;53.222;7.446;2023-02-22T05:12:25;50.40;;;27.10;;
36185;SDS011;22228;53.222;7.446;2023-02-22T05:14:46;47.20;;;26.57;;
36185;SDS011;22228;53.222;7.446;2023-02-22T05:17:06;53.47;;;28.03;;
36185;SDS011;22228;53.222;7.446;2023-02-22T05:19:27;48.03;;;25.97;;
36185;SDS011;22228;53.222;7.446;2023-02-22T05:21:47;47.60;;;26.83;;
36185;SDS011;22228;53.222;7.446;2023-02-22T05:24:09;50.63;;;27.50;;
36185;SDS011;22228;53.222;7.446;2023-02-22T05:26:30;48.27;;;26.43;;
36185;SDS011;22228;53.222;7.446;2023-02-22T05:28:50;49.60;;;26.60;;
36185;SDS011;22228;53.222;7.446;2023-02-22T05:31:11;47.73;;;26.83;;
36185;SDS011;22228;53.222;7.446;2023-02-22T05:33:31;48.13;;;26.83;;
36185;SDS011;22228;53.222;7.446;2023-02-22T05:35:52;49.10;;;26.87;;
36185;SDS011;22228;53.222;7.446;2023-02-22T05:38:13;48.10;;;25.10;;
36185;SDS011;22228;53.222;7.446;2023-02-22T05:40:35;45.57;;;24.90;;
36185;SDS011;22228;53.222;7.446;2023-02-22T05:42:56;42.33;;;23.90;;
36185;SDS011;22228;53.222;7.446;2023-02-22T05:45:17;46.77;;;25.43;;
36185;SDS011;22228;53.222;7.446;2023-02-22T05:47:39;44.00;;;25.67;;
36185;SDS011;22228;53.222;7.446;2023-02-22T05:49:59;49.03;;;25.27;;
36185;SDS011;22228;53.222;7.446;2023-02-22T05:52:20;47.03;;;25.80;;
36185;SDS011;22228;53.222;7.446;2023-02-22T05:54:40;41.97;;;24.30;;
36185;SDS011;22228;53.222;7.446;2023-02-22T05:57:02;44.83;;;26.00;;
36185;SDS011;22228;53.222;7.446;2023-02-22T05:59:22;48.77;;;26.73;;
36185;SDS011;22228;53.222;7.446;2023-02-22T06:01:43;47.00;;;25.90;;
36185;SDS011;22228;53.222;7.446;2023-02-22T06:04:03;45.77;;;24.47;;
36185;SDS011;22228;53.222;7.446;2023-02-22T06:06:24;42.37;;;25.03;;
36185;SDS011;22228;53.222;7.446;2023-02-22T06:08:45;44.53;;;25.33;;
36185;SDS011;22228;53.222;7.446;2023-02-22T06:11:05;45.70;;;25.57;;
36185;SDS011;22228;53.222;7.446;2023-02-22T06:13:28;42.03;;;24.47;;
36185;SDS011;22228;53.222;7.446;2023-02-22T06:15:48;43.00;;;24.97;;
36185;SDS011;22228;53.222;7.446;2023-02-22T06:18:09;43.53;;;25.30;;
36185;SDS011;22228;53.222;7.446;2023-02-22T06:20:29;42.13;;;25.00;;
36185;SDS011;22228;53.222;7.446;2023-02-22T06:22:51;42.60;;;24.67;;
36185;SDS011;22228;53.222;7.446;2023-02-22T06:25:13;41.87;;;23.37;;
36185;SDS011;22228;53.222;7.446;2023-02-22T06:27:36;40.53;;;23.57;;
36185;SDS011;22228;53.222;7.446;2023-02-22T06:29:58;41.57;;;23.23;;
36185;SDS011;22228;53.222;7.446;2023-02-22T06:32:18;38.17;;;23.77;;
36185;SDS011;22228;53.222;7.446;2023-02-22T06:34:39;37.47;;;25.13;;
36185;SDS011;22228;53.222;7.446;2023-02-22T06:36:59;42.90;;;25.53;;
36185;SDS011;22228;53.222;7.446;2023-02-22T06:39:20;42.43;;;24.73;;
36185;SDS011;22228;53.222;7.446;2023-02-22T06:41:42;41.17;;;24.27;;
36185;SDS011;22228;53.222;7.446;2023-02-22T06:44:04;38.67;;;23.70;;
36185;SDS011;22228;53.222;7.446;2023-02-22T06:46:26;42.43;;;25.83;;
36185;SDS011;22228;53.222;7.446;2023-02-22T06:48:47;42.47;;;26.03;;
36185;SDS011;22228;53.222;7.446;2023-02-22T06:51:09;39.10;;;25.53;;
36185;SDS011;22228;53.222;7.446;2023-02-22T06:53:30;42.40;;;26.47;;
36185;SDS011;22228;53.222;7.446;2023-02-22T06:55:51;39.50;;;25.13;;
36185;SDS011;22228;53.222;7.446;2023-02-22T06:58:13;40.80;;;24.57;;
36185;SDS011;22228;53.222;7.446;2023-02-22T07:00:33;42.03;;;24.40;;
36185;SDS011;22228;53.222;7.446;2023-02-22T07:02:55;38.23;;;22.47;;
36185;SDS011;22228;53.222;7.446;2023-02-22T07:05:17;37.03;;;22.33;;
36185;SDS011;22228;53.222;7.446;2023-02-22T07:07:39;34.30;;;21.20;;
36185;SDS011;22228;53.222;7.446;2023-02-22T07:09:59;34.73;;;21.07;;
36185;SDS011;22228;53.222;7.446;2023-02-22T07:12:20;32.57;;;20.03;;
36185;SDS011;22228;53.222;7.446;2023-02-22T07:14:40;35.27;;;21.73;;
36185;SDS011;22228;53.222;7.446;2023-02-22T07:17:01;33.40;;;21.00;;
36185;SDS011;22228;53.222;7.446;2023-02-22T07:19:23;34.53;;;21.60;;
36185;SDS011;22228;53.222;7.446;2023-02-22T07:21:43;33.83;;;20.77;;
36185;SDS011;22228;53.222;7.446;2023-02-22T07:24:05;34.60;;;21.03;;
36185;SDS011;22228;53.222;7.446;2023-02-22T07:26:26;33.27;;;21.10;;
36185;SDS011;22228;53.222;7.446;2023-02-22T07:28:46;37.33;;;21.70;;
36185;SDS011;22228;53.222;7.446;2023-02-22T07:31:07;31.60;;;20.37;;
36185;SDS011;22228;53.222;7.446;2023-02-22T07:33:27;37.93;;;22.13;;
36185;SDS011;22228;53.222;7.446;2023-02-22T07:35:49;32.17;;;21.37;;
36185;SDS011;22228;53.222;7.446;2023-02-22T07:38:10;34.20;;;20.67;;
36185;SDS011;22228;53.222;7.446;2023-02-22T07:40:30;35.23;;;20.50;;
36185;SDS011;22228;53.222;7.446;2023-02-22T07:42:51;35.33;;;20.10;;
36185;SDS011;22228;53.222;7.446;2023-02-22T07:45:13;34.27;;;20.43;;
36185;SDS011;22228;53.222;7.446;2023-02-22T07:47:33;31.67;;;20.40;;
36185;SDS011;22228;53.222;7.446;2023-02-22T07:49:54;32.87;;;20.63;;
36185;SDS011;22228;53.222;7.446;2023-02-22T07:52:16;33.37;;;20.43;;
36185;SDS011;22228;53.222;7.446;2023-02-22T07:54:36;35.83;;;22.13;;
36185;SDS011;22228;53.222;7.446;2023-02-22T07:56:57;31.17;;;20.80;;
36185;SDS011;22228;53.222;7.446;2023-02-22T07:59:17;36.83;;;22.33;;
36185;SDS011;22228;53.222;7.446;2023-02-22T08:01:39;43.47;;;26.97;;
36185;SDS011;22228;53.222;7.446;2023-02-22T08:04:00;41.80;;;27.93;;
36185;SDS011;22228;53.222;7.446;2023-02-22T08:06:20;36.10;;;25.10;;
36185;SDS011;22228;53.222;7.446;2023-02-22T08:08:44;41.60;;;27.30;;
36185;SDS011;22228;53.222;7.446;2023-02-22T08:11:05;41.60;;;28.40;;
36185;SDS011;22228;53.222;7.446;2023-02-22T08:13:25;43.33;;;26.93;;
36185;SDS011;22228;53.222;7.446;2023-02-22T08:15:46;41.50;;;26.90;;
36185;SDS011;22228;53.222;7.446;2023-02-22T08:18:07;40.70;;;26.90;;
36185;SDS011;22228;53.222;7.446;2023-02-22T08:20:29;42.93;;;27.07;;
36185;SDS011;22228;53.222;7.446;2023-02-22T08:22:50;40.47;;;26.50;;
36185;SDS011;22228;53.222;7.446;2023-02-22T08:25:12;36.93;;;25.17;;
36185;SDS011;22228;53.222;7.446;2023-02-22T08:27:33;35.47;;;24.07;;
36185;SDS011;22228;53.222;7.446;2023-02-22T08:29:54;38.50;;;24.40;;
36185;SDS011;22228;53.222;7.446;2023-02-22T08:32:15;33.97;;;21.30;;
36185;SDS011;22228;53.222;7.446;2023-02-22T08:34:36;29.80;;;20.43;;
36185;SDS011;22228;53.222;7.446;2023-02-22T08:36:56;29.83;;;20.07;;
36185;SDS011;22228;53.222;7.446;2023-02-22T08:39:17;28.43;;;20.17;;
36185;SDS011;22228;53.222;7.446;2023-02-22T08:41:38;28.50;;;19.47;;
36185;SDS011;22228;53.222;7.446;2023-02-22T08:43:59;30.07;;;19.23;;
36185;SDS011;22228;53.222;7.446;2023-02-22T08:46:20;26.70;;;19.00;;
36185;SDS011;22228;53.222;7.446;2023-02-22T08:48:47;28.53;;;19.73;;
36185;SDS011;22228;53.222;7.446;2023-02-22T08:51:08;28.33;;;20.30;;
36185;SDS011;22228;53.222;7.446;2023-02-22T08:53:29;28.73;;;18.83;;
36185;SDS011;22228;53.222;7.446;2023-02-22T08:55:50;29.00;;;19.67;;
36185;SDS011;22228;53.222;7.446;2023-02-22T08:58:13;29.40;;;19.87;;
36185;SDS011;22228;53.222;7.446;2023-02-22T09:00:33;29.33;;;20.20;;
36185;SDS011;22228;53.222;7.446;2023-02-22T09:02:56;31.33;;;20.93;;
36185;SDS011;22228;53.222;7.446;2023-02-22T09:05:16;35.67;;;22.47;;
36185;SDS011;22228;53.222;7.446;2023-02-22T09:07:39;33.57;;;23.43;;
36185;SDS011;22228;53.222;7.446;2023-02-22T09:10:00;35.60;;;22.73;;
36185;SDS011;22228;53.222;7.446;2023-02-22T09:12:20;33.97;;;23.63;;
36185;SDS011;22228;53.222;7.446;2023-02-22T09:14:42;36.60;;;24.00;;
36185;SDS011;22228;53.222;7.446;2023-02-22T09:17:02;38.97;;;24.43;;
36185;SDS011;22228;53.222;7.446;2023-02-22T09:19:23;35.97;;;23.20;;
36185;SDS011;22228;53.222;7.446;2023-02-22T09:21:43;36.50;;;22.87;;
36185;SDS011;22228;53.222;7.446;2023-02-22T09:24:04;33.07;;;21.23;;
36185;SDS011;22228;53.222;7.446;2023-02-22T09:26:26;33.83;;;23.07;;
36185;SDS011;22228;53.222;7.446;2023-02-22T09:28:46;35.53;;;23.20;;
36185;SDS011;22228;53.222;7.446;2023-02-22T09:31:08;40.00;;;23.70;;
36185;SDS011;22228;53.222;7.446;2023-02-22T09:33:28;39.60;;;26.10;;
36185;SDS011;22228;53.222;7.446;2023-02-22T09:35:49;36.87;;;24.03;;
36185;SDS011;22228;53.222;7.446;2023-02-22T09:38:09;41.10;;;24.67;;
36185;SDS011;22228;53.222;7.446;2023-02-22T09:40:31;40.37;;;25.33;;
36185;SDS011;22228;53.222;7.446;2023-02-22T09:43:04;40.57;;;24.37;;
36185;SDS011;22228;53.222;7.446;2023-02-22T09:45:33;40.47;;;24.90;;
36185;SDS011;22228;53.222;7.446;2023-02-22T09:47:59;38.43;;;23.90;;
36185;SDS011;22228;53.222;7.446;2023-02-22T09:50:25;35.60;;;23.27;;
36185;SDS011;22228;53.222;7.446;2023-02-22T09:52:55;38.07;;;24.00;;
36185;SDS011;22228;53.222;7.446;2023-02-22T09:55:19;42.20;;;25.70;;
36185;SDS011;22228;53.222;7.446;2023-02-22T09:57:48;38.73;;;24.30;;
36185;SDS011;22228;53.222;7.446;2023-02-22T10:00:13;39.77;;;25.77;;
36185;SDS011;22228;53.222;7.446;2023-02-22T10:02:37;38.00;;;24.97;;
36185;SDS011;22228;53.222;7.446;2023-02-22T10:05:05;38.50;;;25.40;;
36185;SDS011;22228;53.222;7.446;2023-02-22T10:07:33;37.03;;;24.13;;
36185;SDS011;22228;53.222;7.446;2023-02-22T10:09:57;39.40;;;24.13;;
36185;SDS011;22228;53.222;7.446;2023-02-22T10:12:28;36.53;;;24.73;;
36185;SDS011;22228;53.222;7.446;2023-02-22T10:15:07;36.97;;;24.23;;
36185;SDS011;22228;53.222;7.446;2023-02-22T10:17:53;38.97;;;24.43;;
36185;SDS011;22228;53.222;7.446;2023-02-22T10:20:28;37.73;;;23.80;;
36185;SDS011;22228;53.222;7.446;2023-02-22T10:23:03;35.90;;;22.37;;
36185;SDS011;22228;53.222;7.446;2023-02-22T10:25:33;35.03;;;23.37;;
36185;SDS011;22228;53.222;7.446;2023-02-22T10:27:56;36.73;;;24.40;;
36185;SDS011;22228;53.222;7.446;2023-02-22T10:30:22;35.47;;;23.33;;
36185;SDS011;22228;53.222;7.446;2023-02-22T10:32:46;34.03;;;22.97;;
36185;SDS011;22228;53.222;7.446;2023-02-22T10:35:16;36.00;;;22.80;;
36185;SDS011;22228;53.222;7.446;2023-02-22T10:37:42;37.17;;;24.93;;
36185;SDS011;22228;53.222;7.446;2023-02-22T10:40:11;40.17;;;25.57;;
36185;SDS011;22228;53.222;7.446;2023-02-22T10:42:35;34.70;;;23.47;;
36185;SDS011;22228;53.222;7.446;2023-02-22T10:44:56;33.63;;;22.93;;
36185;SDS011;22228;53.222;7.446;2023-02-22T10:47:17;37.60;;;25.83;;
36185;SDS011;22228;53.222;7.446;2023-02-22T10:49:39;39.57;;;25.20;;
36185;SDS011;22228;53.222;7.446;2023-02-22T10:52:09;42.17;;;26.00;;
36185;SDS011;22228;53.222;7.446;2023-02-22T10:54:35;39.13;;;26.77;;
36185;SDS011;22228;53.222;7.446;2023-02-22T10:56:59;39.60;;;26.47;;
36185;SDS011;22228;53.222;7.446;2023-02-22T10:59:25;42.77;;;26.30;;
36185;SDS011;22228;53.222;7.446;2023-02-22T11:01:50;41.20;;;26.53;;
36185;SDS011;22228;53.222;7.446;2023-02-22T11:04:11;41.43;;;27.33;;
36185;SDS011;22228;53.222;7.446;2023-02-22T11:06:36;39.30;;;26.13;;
36185;SDS011;22228;53.222;7.446;2023-02-22T11:09:09;39.43;;;26.80;;
36185;SDS011;22228;53.222;7.446;2023-02-22T11:11:33;43.30;;;27.67;;
36185;SDS011;22228;53.222;7.446;2023-02-22T11:13:54;43.67;;;27.63;;
36185;SDS011;22228;53.222;7.446;2023-02-22T11:16:16;40.00;;;26.43;;
36185;SDS011;22228;53.222;7.446;2023-02-22T11:18:37;47.43;;;29.93;;
36185;SDS011;22228;53.222;7.446;2023-02-22T11:20:59;45.23;;;29.07;;
36185;SDS011;22228;53.222;7.446;2023-02-22T11:23:21;45.53;;;29.17;;
36185;SDS011;22228;53.222;7.446;2023-02-22T11:25:41;46.57;;;30.70;;
36185;SDS011;22228;53.222;7.446;2023-02-22T11:28:07;52.43;;;31.67;;
36185;SDS011;22228;53.222;7.446;2023-02-22T11:30:33;50.90;;;31.40;;
36185;SDS011;22228;53.222;7.446;2023-02-22T11:32:55;49.23;;;31.00;;
36185;SDS011;22228;53.222;7.446;2023-02-22T11:35:19;51.63;;;32.27;;
36185;SDS011;22228;53.222;7.446;2023-02-22T11:38:08;48.53;;;31.23;;
36185;SDS011;22228;53.222;7.446;2023-02-22T11:40:30;49.80;;;31.80;;
36185;SDS011;22228;53.222;7.446;2023-02-22T11:43:04;51.50;;;32.03;;
36185;SDS011;22228;53.222;7.446;2023-02-22T11:45:31;49.97;;;31.07;;
36185;SDS011;22228;53.222;7.446;2023-02-22T11:47:54;50.00;;;30.63;;
36185;SDS011;22228;53.222;7.446;2023-02-22T11:50:20;49.10;;;30.73;;
36185;SDS011;22228;53.222;7.446;2023-02-22T11:52:48;51.53;;;32.30;;
36185;SDS011;22228;53.222;7.446;2023-02-22T11:55:16;50.70;;;31.80;;
36185;SDS011;22228;53.222;7.446;2023-02-22T11:57:46;50.37;;;31.07;;
36185;SDS011;22228;53.222;7.446;2023-02-22T12:00:16;46.57;;;31.23;;
36185;SDS011;22228;53.222;7.446;2023-02-22T12:05:30;48.57;;;31.20;;
36185;SDS011;22228;53.222;7.446;2023-02-22T12:08:07;49.70;;;31.13;;
36185;SDS011;22228;53.222;7.446;2023-02-22T12:10:40;50.03;;;32.27;;
36185;SDS011;22228;53.222;7.446;2023-02-22T12:13:09;47.80;;;31.77;;
36185;SDS011;22228;53.222;7.446;2023-02-22T12:15:43;47.37;;;31.27;;
36185;SDS011;22228;53.222;7.446;2023-02-22T12:18:13;46.80;;;31.97;;
36185;SDS011;22228;53.222;7.446;2023-02-22T12:20:45;49.97;;;33.73;;
36185;SDS011;22228;53.222;7.446;2023-02-22T12:23:13;201.43;;;166.93;;
36185;SDS011;22228;53.222;7.446;2023-02-22T12:25:38;51.07;;;34.73;;
36185;SDS011;22228;53.222;7.446;2023-02-22T12:28:09;49.20;;;33.23;;
36185;SDS011;22228;53.222;7.446;2023-02-22T12:30:38;46.73;;;31.83;;
36185;SDS011;22228;53.222;7.446;2023-02-22T12:33:04;47.17;;;31.47;;
36185;SDS011;22228;53.222;7.446;2023-02-22T12:35:32;47.47;;;32.40;;
36185;SDS011;22228;53.222;7.446;2023-02-22T12:37:57;47.40;;;32.17;;
36185;SDS011;22228;53.222;7.446;2023-02-22T12:40:24;46.10;;;31.60;;
36185;SDS011;22228;53.222;7.446;2023-02-22T12:42:51;48.40;;;33.00;;
36185;SDS011;22228;53.222;7.446;2023-02-22T12:45:16;44.57;;;31.57;;
36185;SDS011;22228;53.222;7.446;2023-02-22T12:47:45;47.27;;;31.87;;
36185;SDS011;22228;53.222;7.446;2023-02-22T12:50:14;47.70;;;32.30;;
36185;SDS011;22228;53.222;7.446;2023-02-22T12:52:41;50.23;;;32.83;;
36185;SDS011;22228;53.222;7.446;2023-02-22T12:55:05;47.67;;;31.73;;
36185;SDS011;22228;53.222;7.446;2023-02-22T12:57:33;46.00;;;31.43;;
36185;SDS011;22228;53.222;7.446;2023-02-22T12:59:58;45.43;;;31.93;;
36185;SDS011;22228;53.222;7.446;2023-02-22T13:02:24;46.30;;;31.90;;
36185;SDS011;22228;53.222;7.446;2023-02-22T13:04:47;46.17;;;32.23;;
36185;SDS011;22228;53.222;7.446;2023-02-22T13:07:19;48.57;;;32.00;;
36185;SDS011;22228;53.222;7.446;2023-02-22T13:09:54;47.10;;;31.73;;
36185;SDS011;22228;53.222;7.446;2023-02-22T13:12:23;92.10;;;65.97;;
36185;SDS011;22228;53.222;7.446;2023-02-22T13:14:52;43.47;;;30.73;;
36185;SDS011;22228;53.222;7.446;2023-02-22T13:17:26;42.60;;;30.67;;
36185;SDS011;22228;53.222;7.446;2023-02-22T13:19:54;43.47;;;31.20;;
36185;SDS011;22228;53.222;7.446;2023-02-22T13:22:20;46.90;;;30.53;;
36185;SDS011;22228;53.222;7.446;2023-02-22T13:24:52;44.93;;;30.37;;
36185;SDS011;22228;53.222;7.446;2023-02-22T13:27:21;43.50;;;30.47;;
36185;SDS011;22228;53.222;7.446;2023-02-22T13:29:46;42.67;;;29.97;;
36185;SDS011;22228;53.222;7.446;2023-02-22T13:32:15;42.07;;;29.47;;
36185;SDS011;22228;53.222;7.446;2023-02-22T13:34:48;42.17;;;30.23;;
36185;SDS011;22228;53.222;7.446;2023-02-22T13:37:36;44.27;;;30.37;;
36185;SDS011;22228;53.222;7.446;2023-02-22T13:40:13;45.33;;;31.13;;
36185;SDS011;22228;53.222;7.446;2023-02-22T13:45:52;45.50;;;30.10;;
36185;SDS011;22228;53.222;7.446;2023-02-22T13:48:39;46.73;;;31.03;;
36185;SDS011;22228;53.222;7.446;2023-02-22T13:51:29;49.63;;;32.03;;
36185;SDS011;22228;53.222;7.446;2023-02-22T13:53:59;42.20;;;30.73;;
36185;SDS011;22228;53.222;7.446;2023-02-22T13:56:26;46.77;;;31.30;;
36185;SDS011;22228;53.222;7.446;2023-02-22T13:58:51;43.67;;;31.17;;
36185;SDS011;22228;53.222;7.446;2023-02-22T14:06:42;45.13;;;31.97;;
36185;SDS011;22228;53.222;7.446;2023-02-22T14:09:06;43.23;;;30.50;;
36185;SDS011;22228;53.222;7.446;2023-02-22T14:14:14;45.53;;;31.53;;
36185;SDS011;22228;53.222;7.446;2023-02-22T14:16:38;42.73;;;30.37;;
36185;SDS011;22228;53.222;7.446;2023-02-22T14:19:00;45.67;;;32.03;;
36185;SDS011;22228;53.222;7.446;2023-02-22T14:21:27;47.77;;;31.70;;
36185;SDS011;22228;53.222;7.446;2023-02-22T14:23:48;46.93;;;32.07;;
36185;SDS011;22228;53.222;7.446;2023-02-22T14:26:11;46.27;;;31.17;;
36185;SDS011;22228;53.222;7.446;2023-02-22T14:28:37;47.27;;;32.13;;
36185;SDS011;22228;53.222;7.446;2023-02-22T14:31:05;45.57;;;31.47;;
36185;SDS011;22228;53.222;7.446;2023-02-22T14:36:11;45.73;;;30.83;;
36185;SDS011;22228;53.222;7.446;2023-02-22T14:38:32;48.30;;;32.47;;
36185;SDS011;22228;53.222;7.446;2023-02-22T14:40:53;54.67;;;33.73;;
36185;SDS011;22228;53.222;7.446;2023-02-22T14:43:17;46.00;;;32.40;;
36185;SDS011;22228;53.222;7.446;2023-02-22T14:45:44;49.10;;;31.83;;
36185;SDS011;22228;53.222;7.446;2023-02-22T14:48:11;46.43;;;31.47;;
36185;SDS011;22228;53.222;7.446;2023-02-22T14:50:46;49.60;;;32.83;;
36185;SDS011;22228;53.222;7.446;2023-02-22T14:53:12;44.13;;;29.47;;
36185;SDS011;22228;53.222;7.446;2023-02-22T14:55:42;48.33;;;32.13;;
36185;SDS011;22228;53.222;7.446;2023-02-22T14:58:07;45.57;;;30.40;;
36185;SDS011;22228;53.222;7.446;2023-02-22T15:00:38;46.97;;;32.17;;
36185;SDS011;22228;53.222;7.446;2023-02-22T15:03:01;43.60;;;31.03;;
36185;SDS011;22228;53.222;7.446;2023-02-22T15:05:22;45.03;;;31.40;;
36185;SDS011;22228;53.222;7.446;2023-02-22T15:07:51;45.40;;;31.43;;
36185;SDS011;22228;53.222;7.446;2023-02-22T15:10:20;48.90;;;36.15;;
36185;SDS011;22228;53.222;7.446;2023-02-22T15:12:50;44.27;;;31.03;;
36185;SDS011;22228;53.222;7.446;2023-02-22T15:15:15;45.57;;;30.13;;
36185;SDS011;22228;53.222;7.446;2023-02-22T15:17:39;48.47;;;31.33;;
36185;SDS011;22228;53.222;7.446;2023-02-22T15:20:05;44.60;;;30.53;;
36185;SDS011;22228;53.222;7.446;2023-02-22T15:22:31;48.27;;;30.93;;
36185;SDS011;22228;53.222;7.446;2023-02-22T15:24:56;51.77;;;36.13;;
36185;SDS011;22228;53.222;7.446;2023-02-22T15:27:18;47.60;;;32.27;;
36185;SDS011;22228;53.222;7.446;2023-02-22T15:29:39;44.33;;;30.20;;
36185;SDS011;22228;53.222;7.446;2023-02-22T15:35:13;45.80;;;30.77;;
36185;SDS011;22228;53.222;7.446;2023-02-22T15:40:20;46.23;;;30.23;;
36185;SDS011;22228;53.222;7.446;2023-02-22T15:42:42;43.13;;;29.57;;
36185;SDS011;22228;53.222;7.446;2023-02-22T15:45:04;48.17;;;31.10;;
36185;SDS011;22228;53.222;7.446;2023-02-22T15:47:26;42.20;;;28.43;;
36185;SDS011;22228;53.222;7.446;2023-02-22T15:52:45;46.97;;;31.17;;
36185;SDS011;22228;53.222;7.446;2023-02-22T15:55:10;44.80;;;29.50;;
36185;SDS011;22228;53.222;7.446;2023-02-22T15:57:32;44.97;;;30.30;;
36185;SDS011;22228;53.222;7.446;2023-02-22T15:59:55;44.50;;;29.73;;
36185;SDS011;22228;53.222;7.446;2023-02-22T16:02:19;63.13;;;40.53;;
36185;SDS011;22228;53.222;7.446;2023-02-22T16:04:48;49.63;;;35.33;;
36185;SDS011;22228;53.222;7.446;2023-02-22T16:07:23;49.37;;;31.87;;
36185;SDS011;22228;53.222;7.446;2023-02-22T16:09:45;43.77;;;28.60;;
36185;SDS011;22228;53.222;7.446;2023-02-22T16:12:09;44.47;;;29.20;;
36185;SDS011;22228;53.222;7.446;2023-02-22T16:14:42;46.47;;;30.10;;
36185;SDS011;22228;53.222;7.446;2023-02-22T16:17:18;45.30;;;28.97;;
36185;SDS011;22228;53.222;7.446;2023-02-22T16:19:49;46.00;;;30.37;;
36185;SDS011;22228;53.222;7.446;2023-02-22T16:22:23;43.57;;;30.00;;
36185;SDS011;22228;53.222;7.446;2023-02-22T16:24:51;49.73;;;31.70;;
36185;SDS011;22228;53.222;7.446;2023-02-22T16:27:16;46.20;;;31.33;;
36185;SDS011;22228;53.222;7.446;2023-02-22T16:29:37;45.20;;;29.47;;
36185;SDS011;22228;53.222;7.446;2023-02-22T16:31:59;46.47;;;28.87;;
36185;SDS011;22228;53.222;7.446;2023-02-22T16:34:21;45.87;;;29.87;;
36185;SDS011;22228;53.222;7.446;2023-02-22T16:36:43;47.57;;;31.20;;
36185;SDS011;22228;53.222;7.446;2023-02-22T16:39:06;45.40;;;30.13;;
36185;SDS011;22228;53.222;7.446;2023-02-22T16:41:30;47.57;;;31.13;;
36185;SDS011;22228;53.222;7.446;2023-02-22T16:43:54;48.37;;;31.80;;
36185;SDS011;22228;53.222;7.446;2023-02-22T16:46:16;46.77;;;30.50;;
36185;SDS011;22228;53.222;7.446;2023-02-22T16:51:51;44.27;;;28.10;;
36185;SDS011;22228;53.222;7.446;2023-02-22T16:58:15;46.97;;;30.97;;
36185;SDS011;22228;53.222;7.446;2023-02-22T17:07:07;45.83;;;30.00;;
36185;SDS011;22228;53.222;7.446;2023-02-22T17:09:28;44.13;;;28.20;;
36185;SDS011;22228;53.222;7.446;2023-02-22T17:11:49;42.83;;;29.20;;
36185;SDS011;22228;53.222;7.446;2023-02-22T17:14:14;48.67;;;30.37;;
36185;SDS011;22228;53.222;7.446;2023-02-22T17:16:37;47.10;;;30.20;;
36185;SDS011;22228;53.222;7.446;2023-02-22T17:18:58;46.27;;;30.37;;
36185;SDS011;22228;53.222;7.446;2023-02-22T17:21:19;45.07;;;30.00;;
36185;SDS011;22228;53.222;7.446;2023-02-22T17:23:41;47.27;;;28.63;;
36185;SDS011;22228;53.222;7.446;2023-02-22T17:26:03;43.17;;;28.80;;
36185;SDS011;22228;53.222;7.446;2023-02-22T17:28:24;46.43;;;30.17;;